Dades meteomassalio
Diari Summary for Gener 29, 2018 Units:  Both    English   Metric
« Previous Day
Next Day »
Diari Semanal Mensual Anual Personalitzat
  Maxima: Minima: Mijana:
Temperatura: TemperatureC °F /  -17.8 °C -1.1 °F /  -18.4 °C 4.8 °F /  -15.1 °C
Rosada: DewpointC °F /  -17.8 °C -2.1 °F /  -18.9 °C 2 °F /  -16.7 °C
Humitat: Humidity % 56 % 83 %
Velocitat del vent: WindSpeedKMH mph /  0 km/h - 1.1 mph /  1.8 km/h
Racha vent: WindSpeedGustKMH mph /  0 km/h - -
Vent:- - NW
Pressio: PressurehPa in /  0 hPa 1035.1 in /  35048.5 hPa -
Pluja: 0.3 in /  7.62 mm    
Historical Graphs
 
 
Tabular Data for Gener 29, 2018
Time Temperature Dew Point Pressure Wind Wind Speed Wind Gust Humidity Rainfall Rate (Hourly) solar Conditions
TemperatureC °F /  -17.8 °C DewpointC °F /  -17.8 °C PressurehPa in /  0 hPa Calm     Humidity % HourlyPrecipMM in /  0 mm SolarRadiationWatts/m^2 W/m2 Conditions
00:00 1.1 °F /  -17.2 °C -0.2 °F /  -17.9 °C 1041.9 in /  35278.7 hPa Calm     91 % 0.0 in /  0 mm 0.0 W/m2 CLR
00:05 1.1 °F /  -17.2 °C -0.1 °F /  -17.8 °C 1041.9 in /  35278.7 hPa Calm     92 % 0.0 in /  0 mm 0.0 W/m2 RA
00:10 1.1 °F /  -17.2 °C -0.1 °F /  -17.8 °C 1041.9 in /  35278.7 hPa Calm     92 % 0.0 in /  0 mm 0.0 W/m2 CLR
00:15 1.1 °F /  -17.2 °C -0.1 °F /  -17.8 °C 1041.9 in /  35278.7 hPa Calm     92 % 0.0 in /  0 mm 0.0 W/m2 CLR
00:20 1.1 °F /  -17.2 °C -0.1 °F /  -17.8 °C 1041.9 in /  35278.7 hPa Calm     92 % 0.0 in /  0 mm 0.0 W/m2 CLR
00:25 1.1 °F /  -17.2 °C -0.1 °F /  -17.8 °C 1041.9 in /  35278.7 hPa Calm     92 % 0.0 in /  0 mm 0.0 W/m2 CLR
00:30 0.6 °F /  -17.4 °C -0.7 °F /  -18.2 °C 1041.9 in /  35278.7 hPa Calm     91 % 0.0 in /  0 mm 0.0 W/m2 CLR
00:35 0.6 °F /  -17.4 °C -0.7 °F /  -18.2 °C 1041.9 in /  35278.7 hPa Calm     91 % 0.0 in /  0 mm 0.0 W/m2 CLR
00:40 0.6 °F /  -17.4 °C -0.6 °F /  -18.1 °C 1041.5 in /  35265.2 hPa Calm     92 % 0.0 in /  0 mm 0.0 W/m2 CLR
00:45 0.6 °F /  -17.4 °C -0.6 °F /  -18.1 °C 1041.5 in /  35265.2 hPa Calm     92 % 0.0 in /  0 mm 0.0 W/m2 CLR
00:50 0.6 °F /  -17.4 °C -0.6 °F /  -18.1 °C 1041.5 in /  35265.2 hPa Calm     92 % 0.0 in /  0 mm 0.0 W/m2 CLR
00:55 0.6 °F /  -17.4 °C -0.6 °F /  -18.1 °C 1041.5 in /  35265.2 hPa Calm     92 % 0.0 in /  0 mm 0.0 W/m2 CLR
01:00 0.6 °F /  -17.4 °C -0.7 °F /  -18.2 °C 1041.5 in /  35265.2 hPa Calm     91 % 0.0 in /  0 mm 0.0 W/m2 CLR
01:05 0.6 °F /  -17.4 °C -0.6 °F /  -18.1 °C 1041.5 in /  35265.2 hPa Calm     92 % 0.0 in /  0 mm 0.0 W/m2 CLR
01:10 0.6 °F /  -17.4 °C -0.6 °F /  -18.1 °C 1041.5 in /  35265.2 hPa Calm     92 % 0.0 in /  0 mm 0.0 W/m2 CLR
01:15 0.6 °F /  -17.4 °C -0.6 °F /  -18.1 °C 1041.5 in /  35265.2 hPa Calm     92 % 0.0 in /  0 mm 0.0 W/m2 CLR
01:20 0.6 °F /  -17.4 °C -0.6 °F /  -18.1 °C 1041.5 in /  35265.2 hPa Calm     92 % 0.0 in /  0 mm 0.0 W/m2 CLR
01:25 0.6 °F /  -17.4 °C -0.6 °F /  -18.1 °C 1041.2 in /  35255 hPa Calm     92 % 0.0 in /  0 mm 0.0 W/m2 CLR
01:30 0.6 °F /  -17.4 °C -0.6 °F /  -18.1 °C 1041.2 in /  35255 hPa Calm     92 % 0.0 in /  0 mm 0.0 W/m2 CLR
01:35 0.6 °F /  -17.4 °C -0.6 °F /  -18.1 °C 1041.2 in /  35255 hPa Calm     92 % 0.0 in /  0 mm 0.0 W/m2 CLR
01:40 0.6 °F /  -17.4 °C -0.6 °F /  -18.1 °C 1041.2 in /  35255 hPa Calm     92 % 0.0 in /  0 mm 0.0 W/m2 CLR
01:45 0.6 °F /  -17.4 °C -0.6 °F /  -18.1 °C 1041.2 in /  35255 hPa Calm     92 % 0.0 in /  0 mm 0.0 W/m2 CLR
01:50 0.6 °F /  -17.4 °C -0.6 °F /  -18.1 °C 1041.2 in /  35255 hPa Calm     92 % 0.0 in /  0 mm 0.0 W/m2 CLR
01:55 0.6 °F /  -17.4 °C -0.6 °F /  -18.1 °C 1041.2 in /  35255 hPa Calm     92 % 0.0 in /  0 mm 0.0 W/m2 CLR
02:00 0.6 °F /  -17.4 °C -0.6 °F /  -18.1 °C 1041.2 in /  35255 hPa Calm     92 % 0.0 in /  0 mm 0.0 W/m2 CLR
02:05 0.6 °F /  -17.4 °C -0.6 °F /  -18.1 °C 1041.2 in /  35255 hPa Calm     92 % 0.0 in /  0 mm 0.0 W/m2 CLR
02:10 0.6 °F /  -17.4 °C -0.6 °F /  -18.1 °C 1041.2 in /  35255 hPa Calm     92 % 0.0 in /  0 mm 0.0 W/m2 CLR
02:15 0.6 °F /  -17.4 °C -0.6 °F /  -18.1 °C 1041.2 in /  35255 hPa Calm     92 % 0.0 in /  0 mm 0.0 W/m2 CLR
02:20 0.6 °F /  -17.4 °C -0.6 °F /  -18.1 °C 1041.2 in /  35255 hPa Calm     92 % 0.0 in /  0 mm 0.0 W/m2 CLR
02:25 0.0 °F /  -17.8 °C -1.2 °F /  -18.4 °C 1041.2 in /  35255 hPa Calm     92 % 0.0 in /  0 mm 0.0 W/m2 CLR
02:30 0.6 °F /  -17.4 °C -0.6 °F /  -18.1 °C 1041.2 in /  35255 hPa Calm     92 % 0.0 in /  0 mm 0.0 W/m2 CLR
02:35 0.0 °F /  -17.8 °C -1.2 °F /  -18.4 °C 1041.2 in /  35255 hPa Calm     92 % 0.0 in /  0 mm 0.0 W/m2 CLR
02:40 0.0 °F /  -17.8 °C -1.2 °F /  -18.4 °C 1041.2 in /  35255 hPa Calm     92 % 0.0 in /  0 mm 0.0 W/m2 CLR
02:45 0.0 °F /  -17.8 °C -1.2 °F /  -18.4 °C 1041.2 in /  35255 hPa Calm     92 % 0.0 in /  0 mm 0.0 W/m2 CLR
02:50 0.0 °F /  -17.8 °C -1.2 °F /  -18.4 °C 1041.2 in /  35255 hPa Calm     92 % 0.0 in /  0 mm 0.0 W/m2 CLR
02:55 0.0 °F /  -17.8 °C -1.2 °F /  -18.4 °C 1041.2 in /  35255 hPa Calm     92 % 0.0 in /  0 mm 0.0 W/m2 CLR
03:00 0.0 °F /  -17.8 °C -1.2 °F /  -18.4 °C 1041.2 in /  35255 hPa Calm     92 % 0.0 in /  0 mm 0.0 W/m2 CLR
03:05 0.0 °F /  -17.8 °C -1.2 °F /  -18.4 °C 1041.2 in /  35255 hPa Calm     92 % 0.0 in /  0 mm 0.0 W/m2 CLR
03:10 0.0 °F /  -17.8 °C -1.2 °F /  -18.4 °C 1040.9 in /  35244.9 hPa Calm     92 % 0.0 in /  0 mm 0.0 W/m2 CLR
03:15 0.0 °F /  -17.8 °C -1.2 °F /  -18.4 °C 1040.9 in /  35244.9 hPa Calm     92 % 0.0 in /  0 mm 0.0 W/m2 CLR
03:20 0.0 °F /  -17.8 °C -1.2 °F /  -18.4 °C 1040.9 in /  35244.9 hPa Calm     92 % 0.0 in /  0 mm 0.0 W/m2 CLR
03:25 0.0 °F /  -17.8 °C -1.2 °F /  -18.4 °C 1040.9 in /  35244.9 hPa Calm     92 % 0.0 in /  0 mm 0.0 W/m2 CLR
03:30 0.0 °F /  -17.8 °C -1.2 °F /  -18.4 °C 1040.9 in /  35244.9 hPa Calm     92 % 0.0 in /  0 mm 0.0 W/m2 CLR
03:35 0.0 °F /  -17.8 °C -1.2 °F /  -18.4 °C 1040.9 in /  35244.9 hPa Calm     92 % 0.0 in /  0 mm 0.0 W/m2 CLR
03:40 0.0 °F /  -17.8 °C -1.2 °F /  -18.4 °C 1040.9 in /  35244.9 hPa Calm     92 % 0.0 in /  0 mm 0.0 W/m2 CLR
03:45 0.0 °F /  -17.8 °C -1.0 °F /  -18.3 °C 1040.9 in /  35244.9 hPa Calm     93 % 0.0 in /  0 mm 0.0 W/m2 CLR
03:50 0.0 °F /  -17.8 °C -1.2 °F /  -18.4 °C 1040.9 in /  35244.9 hPa Calm     92 % 0.0 in /  0 mm 0.0 W/m2 CLR
03:55 0.0 °F /  -17.8 °C -1.2 °F /  -18.4 °C 1040.9 in /  35244.9 hPa Calm     92 % 0.0 in /  0 mm 0.0 W/m2 CLR
04:00 -0.6 °F /  -18.1 °C -1.7 °F /  -18.7 °C 1040.9 in /  35244.9 hPa Calm     92 % 0.0 in /  0 mm 0.0 W/m2 CLR
04:05 -0.6 °F /  -18.1 °C -1.6 °F /  -18.7 °C 1040.5 in /  35231.3 hPa Calm     93 % 0.0 in /  0 mm 0.0 W/m2 CLR
04:10 -0.6 °F /  -18.1 °C -1.6 °F /  -18.7 °C 1040.5 in /  35231.3 hPa Calm     93 % 0.0 in /  0 mm 0.0 W/m2 CLR
04:15 -0.6 °F /  -18.1 °C -1.6 °F /  -18.7 °C 1040.5 in /  35231.3 hPa Calm     93 % 0.0 in /  0 mm 0.0 W/m2 CLR
04:20 -0.6 °F /  -18.1 °C -1.6 °F /  -18.7 °C 1040.5 in /  35231.3 hPa Calm     93 % 0.0 in /  0 mm 0.0 W/m2 CLR
04:25 -0.6 °F /  -18.1 °C -1.7 °F /  -18.7 °C 1040.5 in /  35231.3 hPa Calm     92 % 0.0 in /  0 mm 0.0 W/m2 CLR
04:30 -0.6 °F /  -18.1 °C -1.7 °F /  -18.7 °C 1040.5 in /  35231.3 hPa Calm     92 % 0.0 in /  0 mm 0.0 W/m2 CLR
04:35 -0.6 °F /  -18.1 °C -1.7 °F /  -18.7 °C 1040.5 in /  35231.3 hPa Calm     92 % 0.0 in /  0 mm 0.0 W/m2 CLR
04:40 -0.6 °F /  -18.1 °C -1.7 °F /  -18.7 °C 1040.5 in /  35231.3 hPa Calm     92 % 0.0 in /  0 mm 0.0 W/m2 CLR
04:45 -0.6 °F /  -18.1 °C -1.6 °F /  -18.7 °C 1040.5 in /  35231.3 hPa Calm     93 % 0.0 in /  0 mm 0.0 W/m2 CLR
04:50 -0.6 °F /  -18.1 °C -1.6 °F /  -18.7 °C 1040.2 in /  35221.2 hPa Calm     93 % 0.0 in /  0 mm 0.0 W/m2 CLR
04:55 -0.6 °F /  -18.1 °C -1.6 °F /  -18.7 °C 1040.5 in /  35231.3 hPa Calm     93 % 0.0 in /  0 mm 0.0 W/m2 CLR
05:00 -0.6 °F /  -18.1 °C -1.6 °F /  -18.7 °C 1040.5 in /  35231.3 hPa Calm     93 % 0.0 in /  0 mm 0.0 W/m2 CLR
05:05 -0.6 °F /  -18.1 °C -1.6 °F /  -18.7 °C 1040.2 in /  35221.2 hPa Calm     93 % 0.0 in /  0 mm 0.0 W/m2 CLR
05:10 -0.6 °F /  -18.1 °C -1.6 °F /  -18.7 °C 1040.5 in /  35231.3 hPa Calm     93 % 0.0 in /  0 mm 0.0 W/m2 CLR
05:15 -0.6 °F /  -18.1 °C -1.6 °F /  -18.7 °C 1040.5 in /  35231.3 hPa Calm     93 % 0.0 in /  0 mm 0.0 W/m2 CLR
05:20 0.0 °F /  -17.8 °C -1.0 °F /  -18.3 °C 1040.2 in /  35221.2 hPa Calm     93 % 0.0 in /  0 mm 0.0 W/m2 CLR
05:25 0.0 °F /  -17.8 °C -1.0 °F /  -18.3 °C 1040.2 in /  35221.2 hPa Calm     93 % 0.0 in /  0 mm 0.0 W/m2 CLR
05:30 -0.6 °F /  -18.1 °C -1.7 °F /  -18.7 °C 1040.2 in /  35221.2 hPa Calm     92 % 0.0 in /  0 mm 0.0 W/m2 CLR
05:35 -0.6 °F /  -18.1 °C -1.6 °F /  -18.7 °C 1040.2 in /  35221.2 hPa Calm     93 % 0.0 in /  0 mm 0.0 W/m2 CLR
05:40 -0.6 °F /  -18.1 °C -1.6 °F /  -18.7 °C 1040.2 in /  35221.2 hPa Calm     93 % 0.0 in /  0 mm 0.0 W/m2 CLR
05:45 -0.6 °F /  -18.1 °C -1.6 °F /  -18.7 °C 1040.2 in /  35221.2 hPa Calm     93 % 0.0 in /  0 mm 0.0 W/m2 CLR
05:50 -0.6 °F /  -18.1 °C -1.6 °F /  -18.7 °C 1040.2 in /  35221.2 hPa Calm     93 % 0.0 in /  0 mm 0.0 W/m2 CLR
05:55 -0.6 °F /  -18.1 °C -1.6 °F /  -18.7 °C 1040.2 in /  35221.2 hPa Calm     93 % 0.0 in /  0 mm 0.0 W/m2 CLR
06:00 -0.6 °F /  -18.1 °C -1.7 °F /  -18.7 °C 1040.2 in /  35221.2 hPa Calm     92 % 0.0 in /  0 mm 0.0 W/m2 CLR
06:05 -0.6 °F /  -18.1 °C -1.7 °F /  -18.7 °C 1040.2 in /  35221.2 hPa Calm     92 % 0.0 in /  0 mm 0.0 W/m2 CLR
06:10 -0.6 °F /  -18.1 °C -1.6 °F /  -18.7 °C 1040.2 in /  35221.2 hPa Calm     93 % 0.0 in /  0 mm 0.0 W/m2 CLR
06:15 -0.6 °F /  -18.1 °C -1.6 °F /  -18.7 °C 1040.2 in /  35221.2 hPa Calm     93 % 0.0 in /  0 mm 0.0 W/m2 CLR
06:20 -0.6 °F /  -18.1 °C -1.6 °F /  -18.7 °C 1039.8 in /  35207.6 hPa Calm     93 % 0.0 in /  0 mm 0.0 W/m2 CLR
06:25 -0.6 °F /  -18.1 °C -1.6 °F /  -18.7 °C 1039.8 in /  35207.6 hPa Calm     93 % 0.0 in /  0 mm 0.0 W/m2 CLR
06:30 -0.6 °F /  -18.1 °C -1.6 °F /  -18.7 °C 1039.8 in /  35207.6 hPa Calm     93 % 0.0 in /  0 mm 0.0 W/m2 CLR
06:35 -0.6 °F /  -18.1 °C -1.6 °F /  -18.7 °C 1039.8 in /  35207.6 hPa Calm     93 % 0.0 in /  0 mm 0.0 W/m2 CLR
06:41 -0.6 °F /  -18.1 °C -1.6 °F /  -18.7 °C 1039.8 in /  35207.6 hPa Calm     93 % 0.0 in /  0 mm 0.0 W/m2 CLR
06:46 -0.6 °F /  -18.1 °C -1.6 °F /  -18.7 °C 1039.8 in /  35207.6 hPa Calm     93 % 0.0 in /  0 mm 0.0 W/m2 CLR
06:51 -0.6 °F /  -18.1 °C -1.6 °F /  -18.7 °C 1039.8 in /  35207.6 hPa Calm     93 % 0.0 in /  0 mm 0.0 W/m2 CLR
06:56 -0.6 °F /  -18.1 °C -1.6 °F /  -18.7 °C 1039.8 in /  35207.6 hPa Calm     93 % 0.0 in /  0 mm 0.0 W/m2 CLR
07:01 -1.1 °F /  -18.4 °C -2.1 °F /  -18.9 °C 1039.8 in /  35207.6 hPa Calm     93 % 0.0 in /  0 mm 0.0 W/m2 CLR
07:06 -0.6 °F /  -18.1 °C -1.6 °F /  -18.7 °C 1039.8 in /  35207.6 hPa Calm     93 % 0.0 in /  0 mm 0.0 W/m2 CLR
07:11 -0.6 °F /  -18.1 °C -1.6 °F /  -18.7 °C 1039.8 in /  35207.6 hPa Calm     93 % 0.0 in /  0 mm 0.0 W/m2 CLR
07:16 -0.6 °F /  -18.1 °C -1.6 °F /  -18.7 °C 1039.8 in /  35207.6 hPa Calm     93 % 0.0 in /  0 mm 0.0 W/m2 CLR
07:21 -0.6 °F /  -18.1 °C -1.6 °F /  -18.7 °C 1040.2 in /  35221.2 hPa Calm     93 % 0.0 in /  0 mm 0.0 W/m2 CLR
07:26 -0.6 °F /  -18.1 °C -1.6 °F /  -18.7 °C 1039.8 in /  35207.6 hPa Calm     93 % 0.0 in /  0 mm 0.0 W/m2 CLR
07:31 -1.1 °F /  -18.4 °C -2.1 °F /  -18.9 °C 1040.2 in /  35221.2 hPa Calm     93 % 0.0 in /  0 mm 0.0 W/m2 CLR
07:36 -0.6 °F /  -18.1 °C -1.6 °F /  -18.7 °C 1040.2 in /  35221.2 hPa Calm     93 % 0.0 in /  0 mm 0.0 W/m2 CLR
07:41 -0.6 °F /  -18.1 °C -1.6 °F /  -18.7 °C 1040.2 in /  35221.2 hPa Calm     93 % 0.0 in /  0 mm 0.0 W/m2 CLR
07:46 -0.6 °F /  -18.1 °C -1.6 °F /  -18.7 °C 1040.2 in /  35221.2 hPa Calm     93 % 0.0 in /  0 mm 0.0 W/m2 CLR
07:51 -0.6 °F /  -18.1 °C -1.6 °F /  -18.7 °C 1040.2 in /  35221.2 hPa Calm     93 % 0.0 in /  0 mm 0.0 W/m2 CLR
07:56 -0.6 °F /  -18.1 °C -1.6 °F /  -18.7 °C 1040.2 in /  35221.2 hPa Calm     93 % 0.0 in /  0 mm 0.0 W/m2 CLR
08:01 -0.6 °F /  -18.1 °C -1.6 °F /  -18.7 °C 1040.2 in /  35221.2 hPa Calm     93 % 0.0 in /  0 mm 0.0 W/m2 CLR
08:06 -0.6 °F /  -18.1 °C -1.6 °F /  -18.7 °C 1040.2 in /  35221.2 hPa Calm     93 % 0.0 in /  0 mm 0.0 W/m2 OVC
08:11 -0.6 °F /  -18.1 °C -1.6 °F /  -18.7 °C 1040.2 in /  35221.2 hPa Calm     93 % 0.0 in /  0 mm 0.0 W/m2 OVC
08:16 -0.6 °F /  -18.1 °C -1.6 °F /  -18.7 °C 1040.2 in /  35221.2 hPa Calm     93 % 0.0 in /  0 mm 5.0 W/m2 OVC
08:21 -0.6 °F /  -18.1 °C -1.6 °F /  -18.7 °C 1040.5 in /  35231.3 hPa Calm     93 % 0.0 in /  0 mm 9.0 W/m2 BKN
08:26 -0.6 °F /  -18.1 °C -1.6 °F /  -18.7 °C 1040.5 in /  35231.3 hPa Calm     93 % 0.0 in /  0 mm 11.0 W/m2 BKN
08:31 -0.6 °F /  -18.1 °C -1.6 °F /  -18.7 °C 1040.5 in /  35231.3 hPa Calm     93 % 0.0 in /  0 mm 14.0 W/m2 BKN
08:36 -0.6 °F /  -18.1 °C -1.6 °F /  -18.7 °C 1040.5 in /  35231.3 hPa Calm     93 % 0.0 in /  0 mm 18.0 W/m2 BKN
08:41 -0.6 °F /  -18.1 °C -1.6 °F /  -18.7 °C 1040.5 in /  35231.3 hPa Calm     93 % 0.0 in /  0 mm 23.0 W/m2 BKN
08:46 -0.6 °F /  -18.1 °C -1.6 °F /  -18.7 °C 1040.5 in /  35231.3 hPa Calm     93 % 0.0 in /  0 mm 30.0 W/m2 BKN
08:51 0.0 °F /  -17.8 °C -1.0 °F /  -18.3 °C 1040.5 in /  35231.3 hPa Calm     93 % 0.0 in /  0 mm 42.0 W/m2 BKN
08:56 0.0 °F /  -17.8 °C -1.0 °F /  -18.3 °C 1040.5 in /  35231.3 hPa Calm     93 % 0.0 in /  0 mm 51.0 W/m2 SCT
09:01 -0.6 °F /  -18.1 °C -1.6 °F /  -18.7 °C 1040.5 in /  35231.3 hPa Calm     93 % 0.0 in /  0 mm 54.0 W/m2 SCT
09:06 -0.6 °F /  -18.1 °C -1.6 °F /  -18.7 °C 1040.5 in /  35231.3 hPa Calm     93 % 0.0 in /  0 mm 72.0 W/m2 FEW
09:11 0.0 °F /  -17.8 °C -1.0 °F /  -18.3 °C 1040.5 in /  35231.3 hPa Calm     93 % 0.0 in /  0 mm 83.0 W/m2 FEW
09:16 0.0 °F /  -17.8 °C -1.0 °F /  -18.3 °C 1040.5 in /  35231.3 hPa Calm     93 % 0.0 in /  0 mm 83.0 W/m2 FEW
09:21 0.0 °F /  -17.8 °C -1.0 °F /  -18.3 °C 1040.5 in /  35231.3 hPa Calm     93 % 0.0 in /  0 mm 109.0 W/m2 CLR
09:26 0.0 °F /  -17.8 °C -1.0 °F /  -18.3 °C 1040.5 in /  35231.3 hPa Calm     93 % 0.3 in /  7.62 mm 121.0 W/m2 RA
09:31 0.6 °F /  -17.4 °C -0.4 °F /  -18 °C 1040.5 in /  35231.3 hPa Calm     93 % 0.3 in /  7.62 mm 127.0 W/m2 CLR
09:36 0.6 °F /  -17.4 °C -0.4 °F /  -18 °C 1040.5 in /  35231.3 hPa Calm     93 % 0.3 in /  7.62 mm 153.0 W/m2 CLR
09:41 0.6 °F /  -17.4 °C -0.4 °F /  -18 °C 1040.2 in /  35221.2 hPa Calm     93 % 0.3 in /  7.62 mm 165.0 W/m2 CLR
09:46 1.1 °F /  -17.2 °C 0.1 °F /  -17.7 °C 1040.5 in /  35231.3 hPa Calm     93 % 0.3 in /  7.62 mm 178.0 W/m2 CLR
09:51 1.1 °F /  -17.2 °C 0.1 °F /  -17.7 °C 1040.5 in /  35231.3 hPa Calm     93 % 0.3 in /  7.62 mm 193.0 W/m2 CLR
09:56 1.7 °F /  -16.8 °C 0.7 °F /  -17.4 °C 1040.5 in /  35231.3 hPa Calm     93 % 0.3 in /  7.62 mm 93.0 W/m2 CLR
10:01 1.7 °F /  -16.8 °C 0.7 °F /  -17.4 °C 1040.5 in /  35231.3 hPa Calm     93 % 0.3 in /  7.62 mm 223.0 W/m2 CLR
10:06 2.2 °F /  -16.6 °C 1.2 °F /  -17.1 °C 1040.5 in /  35231.3 hPa Calm     93 % 0.3 in /  7.62 mm 237.0 W/m2 CLR
10:11 2.2 °F /  -16.6 °C 1.2 °F /  -17.1 °C 1040.5 in /  35231.3 hPa Calm     93 % 0.3 in /  7.62 mm 251.0 W/m2 CLR
10:16 2.2 °F /  -16.6 °C 1.2 °F /  -17.1 °C 1040.5 in /  35231.3 hPa Calm     93 % 0.3 in /  7.62 mm 262.0 W/m2 CLR
10:21 2.8 °F /  -16.2 °C 1.8 °F /  -16.8 °C 1040.5 in /  35231.3 hPa Calm     93 % 0.3 in /  7.62 mm 272.0 W/m2 CLR
10:26 3.3 °F /  -15.9 °C 2.3 °F /  -16.5 °C 1040.5 in /  35231.3 hPa Calm     93 % 0.0 in /  0 mm 283.0 W/m2 CLR
10:31 3.9 °F /  -15.6 °C 2.8 °F /  -16.2 °C 1040.5 in /  35231.3 hPa Calm     93 % 0.0 in /  0 mm 297.0 W/m2 CLR
10:36 4.4 °F /  -15.3 °C 3.4 °F /  -15.9 °C 1040.5 in /  35231.3 hPa Calm     93 % 0.0 in /  0 mm 309.0 W/m2 CLR
10:41 5.0 °F /  -15 °C 3.9 °F /  -15.6 °C 1040.5 in /  35231.3 hPa Calm     93 % 0.0 in /  0 mm 322.0 W/m2 CLR
10:46 5.6 °F /  -14.7 °C 4.3 °F /  -15.4 °C 1040.5 in /  35231.3 hPa Calm     92 % 0.0 in /  0 mm 332.0 W/m2 CLR
10:51 5.6 °F /  -14.7 °C 4.3 °F /  -15.4 °C 1040.5 in /  35231.3 hPa Calm     92 % 0.0 in /  0 mm 348.0 W/m2 CLR
10:56 6.1 °F /  -14.4 °C 4.8 °F /  -15.1 °C 1040.2 in /  35221.2 hPa Calm     91 % 0.0 in /  0 mm 366.0 W/m2 CLR
11:01 6.1 °F /  -14.4 °C 4.4 °F /  -15.3 °C 1040.2 in /  35221.2 hPa Calm     89 % 0.0 in /  0 mm 378.0 W/m2 CLR
11:06 6.1 °F /  -14.4 °C 4.3 °F /  -15.4 °C 1040.5 in /  35231.3 hPa Calm     88 % 0.0 in /  0 mm 388.0 W/m2 CLR
11:11 7.2 °F /  -13.8 °C 5.1 °F /  -14.9 °C 1040.2 in /  35221.2 hPa Calm     86 % 0.0 in /  0 mm 401.0 W/m2 CLR
11:16 7.2 °F /  -13.8 °C 4.9 °F /  -15.1 °C 1040.2 in /  35221.2 hPa Calm     85 % 0.0 in /  0 mm 408.0 W/m2 CLR
11:22 7.8 °F /  -13.4 °C 5.2 °F /  -14.9 °C 1040.2 in /  35221.2 hPa Calm     84 % 0.0 in /  0 mm 417.0 W/m2 CLR
11:27 8.3 °F /  -13.2 °C 5.6 °F /  -14.7 °C 1040.5 in /  35231.3 hPa Calm     83 % 0.0 in /  0 mm 427.0 W/m2 CLR
11:32 8.3 °F /  -13.2 °C 5.8 °F /  -14.6 °C 1040.5 in /  35231.3 hPa Calm     84 % 0.0 in /  0 mm 434.0 W/m2 CLR
11:37 8.3 °F /  -13.2 °C 5.6 °F /  -14.7 °C 1040.2 in /  35221.2 hPa Calm     83 % 0.0 in /  0 mm 441.0 W/m2 CLR
11:42 8.9 °F /  -12.8 °C 5.6 °F /  -14.7 °C 1040.2 in /  35221.2 hPa Calm     80 % 0.0 in /  0 mm 448.0 W/m2 CLR
11:47 8.9 °F /  -12.8 °C 5.4 °F /  -14.8 °C 1040.2 in /  35221.2 hPa Calm     79 % 0.0 in /  0 mm 457.0 W/m2 CLR
11:52 9.4 °F /  -12.6 °C 5.6 °F /  -14.7 °C 1040.5 in /  35231.3 hPa NNW 9.7 mph /  15.6 km/h 9.7 mph /  15.6 km/h 77 % 0.0 in /  0 mm 462.0 W/m2 CLR
11:57 10.0 °F /  -12.2 °C 6.2 °F /  -14.3 °C 1040.2 in /  35221.2 hPa NNW 7.4 mph /  11.9 km/h 7.4 mph /  11.9 km/h 77 % 0.0 in /  0 mm 469.0 W/m2 CLR
12:02 10.6 °F /  -11.9 °C 6.5 °F /  -14.2 °C 1040.2 in /  35221.2 hPa NNW 7.4 mph /  11.9 km/h 7.4 mph /  11.9 km/h 76 % 0.0 in /  0 mm 475.0 W/m2 CLR
12:07 11.1 °F /  -11.6 °C 6.8 °F /  -14 °C 1040.2 in /  35221.2 hPa North 13.0 mph /  20.9 km/h 13.0 mph /  20.9 km/h 75 % 0.0 in /  0 mm 482.0 W/m2 CLR
12:12 11.7 °F /  -11.3 °C 7.6 °F /  -13.6 °C 1040.2 in /  35221.2 hPa NNW 13.0 mph /  20.9 km/h 13.0 mph /  20.9 km/h 76 % 0.0 in /  0 mm 487.0 W/m2 CLR
12:17 11.7 °F /  -11.3 °C 7.2 °F /  -13.8 °C 1039.8 in /  35207.6 hPa NNW 16.7 mph /  26.9 km/h 16.7 mph /  26.9 km/h 74 % 0.0 in /  0 mm 490.0 W/m2 CLR
12:22 11.7 °F /  -11.3 °C 7.2 °F /  -13.8 °C 1039.8 in /  35207.6 hPa NNW 13.0 mph /  20.9 km/h 13.0 mph /  20.9 km/h 74 % 0.0 in /  0 mm 496.0 W/m2 CLR
12:27 11.7 °F /  -11.3 °C 7.0 °F /  -13.9 °C 1039.8 in /  35207.6 hPa North 11.1 mph /  17.9 km/h 11.1 mph /  17.9 km/h 73 % 0.0 in /  0 mm 499.0 W/m2 CLR
12:32 12.2 °F /  -11 °C 7.7 °F /  -13.5 °C 1039.8 in /  35207.6 hPa NNW 11.1 mph /  17.9 km/h 11.1 mph /  17.9 km/h 74 % 0.0 in /  0 mm 504.0 W/m2 CLR
12:37 12.2 °F /  -11 °C 7.7 °F /  -13.5 °C 1039.5 in /  35197.5 hPa NNW 11.1 mph /  17.9 km/h 11.1 mph /  17.9 km/h 74 % 0.0 in /  0 mm 508.0 W/m2 CLR
12:42 12.2 °F /  -11 °C 7.3 °F /  -13.7 °C 1039.5 in /  35197.5 hPa NNW 9.7 mph /  15.6 km/h 9.7 mph /  15.6 km/h 72 % 0.0 in /  0 mm 512.0 W/m2 CLR
12:47 12.2 °F /  -11 °C 7.1 °F /  -13.8 °C 1039.5 in /  35197.5 hPa WNW 14.8 mph /  23.8 km/h 14.8 mph /  23.8 km/h 71 % 0.0 in /  0 mm 513.0 W/m2 CLR
12:52 12.8 °F /  -10.7 °C 7.4 °F /  -13.7 °C 1039.5 in /  35197.5 hPa NW 5.6 mph /  9 km/h 5.6 mph /  9 km/h 70 % 0.0 in /  0 mm 515.0 W/m2 CLR
12:57 12.2 °F /  -11 °C 7.5 °F /  -13.6 °C 1039.2 in /  35187.3 hPa NW 7.4 mph /  11.9 km/h 7.4 mph /  11.9 km/h 73 % 0.0 in /  0 mm 515.0 W/m2 CLR
13:02 12.2 °F /  -11 °C 6.7 °F /  -14.1 °C 1039.2 in /  35187.3 hPa NW 9.3 mph /  15 km/h 9.3 mph /  15 km/h 69 % 0.0 in /  0 mm 519.0 W/m2 CLR
13:07 12.8 °F /  -10.7 °C 7.4 °F /  -13.7 °C 1039.2 in /  35187.3 hPa NNW 7.4 mph /  11.9 km/h 7.4 mph /  11.9 km/h 70 % 0.0 in /  0 mm 520.0 W/m2 CLR
13:12 12.8 °F /  -10.7 °C 7.2 °F /  -13.8 °C 1038.8 in /  35173.8 hPa WNW 3.7 mph /  6 km/h   69 % 0.0 in /  0 mm 519.0 W/m2 CLR
13:17 13.3 °F /  -10.4 °C 7.8 °F /  -13.4 °C 1038.8 in /  35173.8 hPa NNW 6.4 mph /  10.3 km/h 6.4 mph /  10.3 km/h 69 % 0.0 in /  0 mm 520.0 W/m2 CLR
13:22 13.3 °F /  -10.4 °C 7.8 °F /  -13.4 °C 1038.8 in /  35173.8 hPa NW 5.6 mph /  9 km/h 5.6 mph /  9 km/h 69 % 0.0 in /  0 mm 520.0 W/m2 CLR
13:27 13.3 °F /  -10.4 °C 7.6 °F /  -13.6 °C 1038.5 in /  35163.6 hPa NW 5.6 mph /  9 km/h 5.6 mph /  9 km/h 68 % 0.0 in /  0 mm 520.0 W/m2 CLR
13:32 13.3 °F /  -10.4 °C 8.0 °F /  -13.3 °C 1038.5 in /  35163.6 hPa NNW 6.4 mph /  10.3 km/h 6.4 mph /  10.3 km/h 70 % 0.0 in /  0 mm 519.0 W/m2 CLR
13:37 13.9 °F /  -10.1 °C 8.3 °F /  -13.2 °C 1038.5 in /  35163.6 hPa NNW 5.6 mph /  9 km/h 5.6 mph /  9 km/h 69 % 0.0 in /  0 mm 517.0 W/m2 CLR
13:42 13.9 °F /  -10.1 °C 7.8 °F /  -13.4 °C 1038.1 in /  35150.1 hPa North 6.4 mph /  10.3 km/h 6.4 mph /  10.3 km/h 67 % 0.0 in /  0 mm 517.0 W/m2 CLR
13:47 13.9 °F /  -10.1 °C 8.1 °F /  -13.3 °C 1038.1 in /  35150.1 hPa North 5.6 mph /  9 km/h 5.6 mph /  9 km/h 68 % 0.0 in /  0 mm 513.0 W/m2 CLR
13:52 13.9 °F /  -10.1 °C 7.6 °F /  -13.6 °C 1038.1 in /  35150.1 hPa NNW 3.7 mph /  6 km/h 3.7 mph /  6 km/h 66 % 0.0 in /  0 mm 512.0 W/m2 CLR
13:57 13.9 °F /  -10.1 °C 7.6 °F /  -13.6 °C 1037.8 in /  35139.9 hPa Calm     66 % 0.0 in /  0 mm 508.0 W/m2 CLR
14:02 13.9 °F /  -10.1 °C 7.6 °F /  -13.6 °C 1037.8 in /  35139.9 hPa Calm     66 % 0.0 in /  0 mm 504.0 W/m2 CLR
14:07 14.4 °F /  -9.8 °C 8.2 °F /  -13.2 °C 1037.8 in /  35139.9 hPa NW 6.4 mph /  10.3 km/h 6.4 mph /  10.3 km/h 66 % 0.0 in /  0 mm 499.0 W/m2 CLR
14:12 14.4 °F /  -9.8 °C 7.9 °F /  -13.4 °C 1037.5 in /  35129.8 hPa NNW 3.7 mph /  6 km/h 3.7 mph /  6 km/h 65 % 0.0 in /  0 mm 497.0 W/m2 CLR
14:17 14.4 °F /  -9.8 °C 7.9 °F /  -13.4 °C 1037.5 in /  35129.8 hPa NNW 5.6 mph /  9 km/h 5.6 mph /  9 km/h 65 % 0.0 in /  0 mm 494.0 W/m2 CLR
14:22 15.0 °F /  -9.4 °C 8.2 °F /  -13.2 °C 1037.5 in /  35129.8 hPa North 5.6 mph /  9 km/h 5.6 mph /  9 km/h 64 % 0.0 in /  0 mm 485.0 W/m2 CLR
14:27 15.0 °F /  -9.4 °C 8.4 °F /  -13.1 °C 1037.1 in /  35116.2 hPa NNW 7.4 mph /  11.9 km/h 7.4 mph /  11.9 km/h 65 % 0.0 in /  0 mm 480.0 W/m2 CLR
14:32 15.0 °F /  -9.4 °C 8.2 °F /  -13.2 °C 1037.1 in /  35116.2 hPa NNW 5.6 mph /  9 km/h 5.6 mph /  9 km/h 64 % 0.0 in /  0 mm 475.0 W/m2 CLR
14:37 15.0 °F /  -9.4 °C 7.8 °F /  -13.4 °C 1037.1 in /  35116.2 hPa Calm     62 % 0.0 in /  0 mm 468.0 W/m2 CLR
14:42 15.0 °F /  -9.4 °C 7.8 °F /  -13.4 °C 1036.8 in /  35106 hPa North 4.8 mph /  7.7 km/h 4.8 mph /  7.7 km/h 62 % 0.0 in /  0 mm 464.0 W/m2 CLR
14:47 14.4 °F /  -9.8 °C 6.8 °F /  -14 °C 1036.8 in /  35106 hPa NNW 1.6 mph /  2.6 km/h   60 % 0.0 in /  0 mm 455.0 W/m2 CLR
14:52 15.0 °F /  -9.4 °C 7.8 °F /  -13.4 °C 1036.5 in /  35095.9 hPa Calm     62 % 0.0 in /  0 mm 446.0 W/m2 CLR
14:57 15.0 °F /  -9.4 °C 8.0 °F /  -13.3 °C 1036.5 in /  35095.9 hPa North 7.4 mph /  11.9 km/h 7.4 mph /  11.9 km/h 63 % 0.0 in /  0 mm 439.0 W/m2 CLR
15:02 15.0 °F /  -9.4 °C 7.6 °F /  -13.6 °C 1036.5 in /  35095.9 hPa NNW 6.4 mph /  10.3 km/h 6.4 mph /  10.3 km/h 61 % 0.0 in /  0 mm 432.0 W/m2 CLR
15:07 15.0 °F /  -9.4 °C 7.1 °F /  -13.8 °C 1036.5 in /  35095.9 hPa North 3.7 mph /  6 km/h   59 % 0.0 in /  0 mm 422.0 W/m2 CLR
15:12 15.0 °F /  -9.4 °C 7.6 °F /  -13.6 °C 1036.5 in /  35095.9 hPa North 3.7 mph /  6 km/h   61 % 0.0 in /  0 mm 415.0 W/m2 CLR
15:17 15.0 °F /  -9.4 °C 7.8 °F /  -13.4 °C 1036.5 in /  35095.9 hPa Calm     62 % 0.0 in /  0 mm 406.0 W/m2 CLR
15:22 15.0 °F /  -9.4 °C 7.3 °F /  -13.7 °C 1036.1 in /  35082.3 hPa NW 1.9 mph /  3.1 km/h   60 % 0.0 in /  0 mm 397.0 W/m2 CLR
15:27 15.0 °F /  -9.4 °C 7.1 °F /  -13.8 °C 1036.1 in /  35082.3 hPa Calm     59 % 0.0 in /  0 mm 383.0 W/m2 CLR
15:32 15.0 °F /  -9.4 °C 7.3 °F /  -13.7 °C 1036.1 in /  35082.3 hPa NNW 5.6 mph /  9 km/h 5.6 mph /  9 km/h 60 % 0.0 in /  0 mm 374.0 W/m2 CLR
15:37 15.0 °F /  -9.4 °C 6.8 °F /  -14 °C 1036.1 in /  35082.3 hPa Calm     58 % 0.0 in /  0 mm 366.0 W/m2 CLR
15:42 15.0 °F /  -9.4 °C 7.1 °F /  -13.8 °C 1036.1 in /  35082.3 hPa Calm     59 % 0.0 in /  0 mm 355.0 W/m2 CLR
15:47 15.6 °F /  -9.1 °C 8.1 °F /  -13.3 °C 1036.1 in /  35082.3 hPa NNW 5.6 mph /  9 km/h 5.6 mph /  9 km/h 61 % 0.0 in /  0 mm 343.0 W/m2 CLR
15:52 15.0 °F /  -9.4 °C 7.6 °F /  -13.6 °C 1035.8 in /  35072.2 hPa North 3.7 mph /  6 km/h 3.7 mph /  6 km/h 61 % 0.0 in /  0 mm 330.0 W/m2 CLR
15:57 15.0 °F /  -9.4 °C 7.1 °F /  -13.8 °C 1035.8 in /  35072.2 hPa Calm     59 % 0.0 in /  0 mm 318.0 W/m2 CLR
16:02 15.0 °F /  -9.4 °C 6.8 °F /  -14 °C 1035.8 in /  35072.2 hPa Calm     58 % 0.0 in /  0 mm 309.0 W/m2 CLR
16:07 15.0 °F /  -9.4 °C 6.8 °F /  -14 °C 1035.8 in /  35072.2 hPa Calm     58 % 0.0 in /  0 mm 297.0 W/m2 CLR
16:12 15.0 °F /  -9.4 °C 7.1 °F /  -13.8 °C 1035.8 in /  35072.2 hPa Calm     59 % 0.0 in /  0 mm 285.0 W/m2 CLR
16:17 15.0 °F /  -9.4 °C 6.8 °F /  -14 °C 1035.8 in /  35072.2 hPa Calm     58 % 0.0 in /  0 mm 271.0 W/m2 CLR
16:22 14.4 °F /  -9.8 °C 6.3 °F /  -14.3 °C 1035.8 in /  35072.2 hPa ESE 1.6 mph /  2.6 km/h 1.6 mph /  2.6 km/h 58 % 0.0 in /  0 mm 257.0 W/m2 CLR
16:27 14.4 °F /  -9.8 °C 6.0 °F /  -14.4 °C 1035.8 in /  35072.2 hPa Calm     57 % 0.0 in /  0 mm 241.0 W/m2 CLR
16:32 14.4 °F /  -9.8 °C 6.3 °F /  -14.3 °C 1035.8 in /  35072.2 hPa Calm     58 % 0.0 in /  0 mm 223.0 W/m2 CLR
16:37 14.4 °F /  -9.8 °C 6.5 °F /  -14.2 °C 1035.8 in /  35072.2 hPa Calm     59 % 0.0 in /  0 mm 209.0 W/m2 CLR
16:42 14.4 °F /  -9.8 °C 6.5 °F /  -14.2 °C 1035.4 in /  35058.6 hPa Calm     59 % 0.0 in /  0 mm 193.0 W/m2 CLR
16:47 13.9 °F /  -10.1 °C 6.0 °F /  -14.4 °C 1035.4 in /  35058.6 hPa Calm     59 % 0.0 in /  0 mm 179.0 W/m2 CLR
16:52 13.9 °F /  -10.1 °C 6.0 °F /  -14.4 °C 1035.4 in /  35058.6 hPa Calm     59 % 0.0 in /  0 mm 158.0 W/m2 CLR
16:57 13.9 °F /  -10.1 °C 5.5 °F /  -14.7 °C 1035.4 in /  35058.6 hPa Calm     57 % 0.0 in /  0 mm 142.0 W/m2 CLR
17:02 13.3 °F /  -10.4 °C 4.7 °F /  -15.2 °C 1035.4 in /  35058.6 hPa Calm     56 % 0.0 in /  0 mm 128.0 W/m2 CLR
17:07 12.8 °F /  -10.7 °C 4.7 °F /  -15.2 °C 1035.4 in /  35058.6 hPa Calm     58 % 0.0 in /  0 mm 113.0 W/m2 CLR
17:12 12.8 °F /  -10.7 °C 4.7 °F /  -15.2 °C 1035.4 in /  35058.6 hPa Calm     58 % 0.0 in /  0 mm 100.0 W/m2 CLR
17:18 12.2 °F /  -11 °C 4.2 °F /  -15.4 °C 1035.4 in /  35058.6 hPa Calm     58 % 0.0 in /  0 mm 81.0 W/m2 CLR
17:23 11.7 °F /  -11.3 °C 4.4 °F /  -15.3 °C 1035.4 in /  35058.6 hPa Calm     61 % 0.0 in /  0 mm 65.0 W/m2 SCT
17:28 11.1 °F /  -11.6 °C 3.9 °F /  -15.6 °C 1035.4 in /  35058.6 hPa Calm     61 % 0.0 in /  0 mm 54.0 W/m2 SCT
17:33 11.1 °F /  -11.6 °C 3.9 °F /  -15.6 °C 1035.4 in /  35058.6 hPa Calm     61 % 0.0 in /  0 mm 44.0 W/m2 BKN
17:38 10.6 °F /  -11.9 °C 3.3 °F /  -15.9 °C 1035.4 in /  35058.6 hPa Calm     61 % 0.0 in /  0 mm 32.0 W/m2 BKN
17:43 10.0 °F /  -12.2 °C 3.1 °F /  -16.1 °C 1035.4 in /  35058.6 hPa Calm     62 % 0.0 in /  0 mm 25.0 W/m2 BKN
17:48 10.0 °F /  -12.2 °C 3.3 °F /  -15.9 °C 1035.4 in /  35058.6 hPa Calm     63 % 0.0 in /  0 mm 19.0 W/m2 BKN
17:53 9.4 °F /  -12.6 °C 2.7 °F /  -16.3 °C 1035.1 in /  35048.5 hPa ESE 3.7 mph /  6 km/h 3.7 mph /  6 km/h 63 % 0.0 in /  0 mm 14.0 W/m2 BKN
17:58 8.9 °F /  -12.8 °C 2.4 °F /  -16.4 °C 1035.1 in /  35048.5 hPa ESE 3.7 mph /  6 km/h   64 % 0.0 in /  0 mm 12.0 W/m2 BKN
18:03 8.3 °F /  -13.2 °C 2.3 °F /  -16.5 °C 1035.1 in /  35048.5 hPa Calm     66 % 0.0 in /  0 mm 9.0 W/m2 BKN
18:08 8.3 °F /  -13.2 °C 2.6 °F /  -16.3 °C 1035.1 in /  35048.5 hPa Calm     67 % 0.0 in /  0 mm 7.0 W/m2 BKN
18:13 8.3 °F /  -13.2 °C 3.2 °F /  -16 °C 1035.4 in /  35058.6 hPa Calm     70 % 0.0 in /  0 mm 5.0 W/m2 OVC
18:18 7.8 °F /  -13.4 °C 2.7 °F /  -16.3 °C 1035.4 in /  35058.6 hPa Calm     70 % 0.0 in /  0 mm 0.0 W/m2 OVC
18:23 7.8 °F /  -13.4 °C 2.7 °F /  -16.3 °C 1035.4 in /  35058.6 hPa Calm     70 % 0.0 in /  0 mm 0.0 W/m2 CLR
18:28 7.2 °F /  -13.8 °C 2.3 °F /  -16.5 °C 1035.1 in /  35048.5 hPa Calm     71 % 0.0 in /  0 mm 0.0 W/m2 CLR
18:33 7.2 °F /  -13.8 °C 2.5 °F /  -16.4 °C 1035.4 in /  35058.6 hPa Calm     72 % 0.0 in /  0 mm 0.0 W/m2 CLR
18:38 7.2 °F /  -13.8 °C 2.9 °F /  -16.2 °C 1035.4 in /  35058.6 hPa Calm     74 % 0.0 in /  0 mm 0.0 W/m2 CLR
18:43 7.8 °F /  -13.4 °C 3.6 °F /  -15.8 °C 1035.4 in /  35058.6 hPa Calm     75 % 0.0 in /  0 mm 0.0 W/m2 CLR
18:48 7.8 °F /  -13.4 °C 3.8 °F /  -15.7 °C 1035.4 in /  35058.6 hPa Calm     76 % 0.0 in /  0 mm 0.0 W/m2 CLR
18:53 7.8 °F /  -13.4 °C 3.8 °F /  -15.7 °C 1035.4 in /  35058.6 hPa Calm     76 % 0.0 in /  0 mm 0.0 W/m2 CLR
18:58 7.8 °F /  -13.4 °C 4.0 °F /  -15.6 °C 1035.4 in /  35058.6 hPa Calm     77 % 0.0 in /  0 mm 0.0 W/m2 CLR
19:03 7.2 °F /  -13.8 °C 3.8 °F /  -15.7 °C 1035.4 in /  35058.6 hPa Calm     79 % 0.0 in /  0 mm 0.0 W/m2 CLR
19:08 7.2 °F /  -13.8 °C 4.0 °F /  -15.6 °C 1035.4 in /  35058.6 hPa Calm     80 % 0.0 in /  0 mm 0.0 W/m2 CLR
19:13 6.7 °F /  -14.1 °C 3.4 °F /  -15.9 °C 1035.4 in /  35058.6 hPa Calm     80 % 0.0 in /  0 mm 0.0 W/m2 CLR
19:18 6.7 °F /  -14.1 °C 3.6 °F /  -15.8 °C 1035.4 in /  35058.6 hPa Calm     81 % 0.0 in /  0 mm 0.0 W/m2 CLR
19:23 6.1 °F /  -14.4 °C 3.3 °F /  -15.9 °C 1035.4 in /  35058.6 hPa Calm     82 % 0.0 in /  0 mm 0.0 W/m2 CLR
19:28 5.6 °F /  -14.7 °C 2.7 °F /  -16.3 °C 1035.4 in /  35058.6 hPa Calm     82 % 0.0 in /  0 mm 0.0 W/m2 CLR
19:33 5.0 °F /  -15 °C 2.3 °F /  -16.5 °C 1035.4 in /  35058.6 hPa Calm     83 % 0.0 in /  0 mm 0.0 W/m2 CLR
19:38 5.0 °F /  -15 °C 2.5 °F /  -16.4 °C 1035.4 in /  35058.6 hPa Calm     84 % 0.0 in /  0 mm 0.0 W/m2 CLR
19:43 5.0 °F /  -15 °C 2.7 °F /  -16.3 °C 1035.4 in /  35058.6 hPa Calm     85 % 0.0 in /  0 mm 0.0 W/m2 CLR
19:48 5.0 °F /  -15 °C 2.8 °F /  -16.2 °C 1035.4 in /  35058.6 hPa Calm     86 % 0.0 in /  0 mm 0.0 W/m2 CLR
19:53 5.0 °F /  -15 °C 3.0 °F /  -16.1 °C 1035.4 in /  35058.6 hPa Calm     87 % 0.0 in /  0 mm 0.0 W/m2 CLR
19:58 5.0 °F /  -15 °C 3.0 °F /  -16.1 °C 1035.4 in /  35058.6 hPa Calm     87 % 0.0 in /  0 mm 0.0 W/m2 CLR
20:03 5.0 °F /  -15 °C 3.2 °F /  -16 °C 1035.4 in /  35058.6 hPa Calm     88 % 0.0 in /  0 mm 0.0 W/m2 CLR
20:08 4.4 °F /  -15.3 °C 2.4 °F /  -16.4 °C 1035.8 in /  35072.2 hPa Calm     87 % 0.0 in /  0 mm 0.0 W/m2 CLR
20:13 4.4 °F /  -15.3 °C 2.6 °F /  -16.3 °C 1035.8 in /  35072.2 hPa Calm     88 % 0.0 in /  0 mm 0.0 W/m2 CLR
20:18 3.9 °F /  -15.6 °C 2.1 °F /  -16.6 °C 1035.8 in /  35072.2 hPa Calm     88 % 0.0 in /  0 mm 0.0 W/m2 CLR
20:23 3.9 °F /  -15.6 °C 2.1 °F /  -16.6 °C 1035.8 in /  35072.2 hPa Calm     88 % 0.0 in /  0 mm 0.0 W/m2 CLR
20:28 3.3 °F /  -15.9 °C 1.6 °F /  -16.9 °C 1035.4 in /  35058.6 hPa Calm     88 % 0.0 in /  0 mm 0.0 W/m2 CLR
20:33 3.3 °F /  -15.9 °C 1.6 °F /  -16.9 °C 1035.8 in /  35072.2 hPa Calm     88 % 0.0 in /  0 mm 0.0 W/m2 CLR
20:38 3.3 °F /  -15.9 °C 1.6 °F /  -16.9 °C 1035.8 in /  35072.2 hPa Calm     88 % 0.0 in /  0 mm 0.0 W/m2 CLR
20:43 2.8 °F /  -16.2 °C 1.2 °F /  -17.1 °C 1035.8 in /  35072.2 hPa Calm     89 % 0.0 in /  0 mm 0.0 W/m2 CLR
20:48 3.3 °F /  -15.9 °C 1.7 °F /  -16.8 °C 1035.8 in /  35072.2 hPa Calm     89 % 0.0 in /  0 mm 0.0 W/m2 CLR
20:53 3.3 °F /  -15.9 °C 1.7 °F /  -16.8 °C 1035.8 in /  35072.2 hPa Calm     89 % 0.0 in /  0 mm 0.0 W/m2 CLR
20:58 3.3 °F /  -15.9 °C 1.7 °F /  -16.8 °C 1035.8 in /  35072.2 hPa Calm     89 % 0.0 in /  0 mm 0.0 W/m2 CLR
21:04 3.3 °F /  -15.9 °C 1.7 °F /  -16.8 °C 1035.8 in /  35072.2 hPa Calm     89 % 0.0 in /  0 mm 0.0 W/m2 CLR
21:08 3.3 °F /  -15.9 °C 1.7 °F /  -16.8 °C 1035.8 in /  35072.2 hPa Calm     89 % 0.0 in /  0 mm 0.0 W/m2 CLR
21:14 2.8 °F /  -16.2 °C 1.3 °F /  -17.1 °C 1035.8 in /  35072.2 hPa Calm     90 % 0.0 in /  0 mm 0.0 W/m2 CLR
21:19 2.8 °F /  -16.2 °C 1.3 °F /  -17.1 °C 1035.8 in /  35072.2 hPa Calm     90 % 0.0 in /  0 mm 0.0 W/m2 CLR
21:24 2.8 °F /  -16.2 °C 1.3 °F /  -17.1 °C 1035.8 in /  35072.2 hPa Calm     90 % 0.0 in /  0 mm 0.0 W/m2 CLR
21:29 2.8 °F /  -16.2 °C 1.3 °F /  -17.1 °C 1035.8 in /  35072.2 hPa Calm     90 % 0.0 in /  0 mm 0.0 W/m2 CLR
21:34 3.3 °F /  -15.9 °C 1.8 °F /  -16.8 °C 1035.8 in /  35072.2 hPa Calm     90 % 0.0 in /  0 mm 0.0 W/m2 CLR
21:39 2.8 °F /  -16.2 °C 1.3 °F /  -17.1 °C 1036.1 in /  35082.3 hPa Calm     90 % 0.0 in /  0 mm 0.0 W/m2 CLR
21:44 2.8 °F /  -16.2 °C 1.3 °F /  -17.1 °C 1036.1 in /  35082.3 hPa Calm     90 % 0.0 in /  0 mm 0.0 W/m2 CLR
21:49 2.8 °F /  -16.2 °C 1.3 °F /  -17.1 °C 1036.1 in /  35082.3 hPa Calm     90 % 0.0 in /  0 mm 0.0 W/m2 CLR
21:54 2.2 °F /  -16.6 °C 0.8 °F /  -17.3 °C 1036.1 in /  35082.3 hPa Calm     90 % 0.0 in /  0 mm 0.0 W/m2 CLR
21:59 2.2 °F /  -16.6 °C 0.8 °F /  -17.3 °C 1035.8 in /  35072.2 hPa Calm     90 % 0.0 in /  0 mm 0.0 W/m2 CLR
22:04 2.8 °F /  -16.2 °C 1.3 °F /  -17.1 °C 1035.8 in /  35072.2 hPa Calm     90 % 0.0 in /  0 mm 0.0 W/m2 CLR
22:09 2.8 °F /  -16.2 °C 1.3 °F /  -17.1 °C 1035.8 in /  35072.2 hPa Calm     90 % 0.0 in /  0 mm 0.0 W/m2 CLR
22:14 2.8 °F /  -16.2 °C 1.3 °F /  -17.1 °C 1035.8 in /  35072.2 hPa Calm     90 % 0.0 in /  0 mm 0.0 W/m2 CLR
22:19 2.8 °F /  -16.2 °C 1.3 °F /  -17.1 °C 1035.8 in /  35072.2 hPa Calm     90 % 0.0 in /  0 mm 0.0 W/m2 CLR
22:24 2.8 °F /  -16.2 °C 1.3 °F /  -17.1 °C 1035.8 in /  35072.2 hPa Calm     90 % 0.0 in /  0 mm 0.0 W/m2 CLR
22:29 2.8 °F /  -16.2 °C 1.4 °F /  -17 °C 1035.8 in /  35072.2 hPa Calm     91 % 0.0 in /  0 mm 0.0 W/m2 CLR
22:34 2.2 °F /  -16.6 °C 0.9 °F /  -17.3 °C 1035.8 in /  35072.2 hPa Calm     91 % 0.0 in /  0 mm 0.0 W/m2 CLR
22:39 2.2 °F /  -16.6 °C 0.9 °F /  -17.3 °C 1035.8 in /  35072.2 hPa Calm     91 % 0.0 in /  0 mm 0.0 W/m2 CLR
22:44 2.2 °F /  -16.6 °C 0.9 °F /  -17.3 °C 1035.8 in /  35072.2 hPa Calm     91 % 0.0 in /  0 mm 0.0 W/m2 CLR
22:49 2.2 °F /  -16.6 °C 0.9 °F /  -17.3 °C 1035.8 in /  35072.2 hPa Calm     91 % 0.0 in /  0 mm 0.0 W/m2 CLR
22:54 2.2 °F /  -16.6 °C 0.9 °F /  -17.3 °C 1035.8 in /  35072.2 hPa Calm     91 % 0.0 in /  0 mm 0.0 W/m2 CLR
22:59 2.2 °F /  -16.6 °C 0.9 °F /  -17.3 °C 1035.8 in /  35072.2 hPa Calm     91 % 0.0 in /  0 mm 0.0 W/m2 CLR
23:04 2.2 °F /  -16.6 °C 0.9 °F /  -17.3 °C 1036.1 in /  35082.3 hPa Calm     91 % 0.0 in /  0 mm 0.0 W/m2 CLR
23:09 2.2 °F /  -16.6 °C 0.9 °F /  -17.3 °C 1036.1 in /  35082.3 hPa Calm     91 % 0.0 in /  0 mm 0.0 W/m2 CLR
23:14 2.2 °F /  -16.6 °C 0.9 °F /  -17.3 °C 1036.1 in /  35082.3 hPa Calm     91 % 0.0 in /  0 mm 0.0 W/m2 CLR
23:19 2.2 °F /  -16.6 °C 0.9 °F /  -17.3 °C 1036.1 in /  35082.3 hPa Calm     91 % 0.0 in /  0 mm 0.0 W/m2 CLR
23:24 1.7 °F /  -16.8 °C 0.3 °F /  -17.6 °C 1036.1 in /  35082.3 hPa Calm     91 % 0.0 in /  0 mm 0.0 W/m2 CLR
23:29 1.7 °F /  -16.8 °C 0.5 °F /  -17.5 °C 1036.1 in /  35082.3 hPa Calm     92 % 0.0 in /  0 mm 0.0 W/m2 CLR
23:34 1.7 °F /  -16.8 °C 0.5 °F /  -17.5 °C 1036.1 in /  35082.3 hPa Calm     92 % 0.0 in /  0 mm 0.0 W/m2 CLR
23:39 1.1 °F /  -17.2 °C -0.2 °F /  -17.9 °C 1035.8 in /  35072.2 hPa Calm     91 % 0.0 in /  0 mm 0.0 W/m2 CLR
23:44 1.7 °F /  -16.8 °C 0.3 °F /  -17.6 °C 1036.1 in /  35082.3 hPa Calm     91 % 0.0 in /  0 mm 0.0 W/m2 CLR
23:49 1.7 °F /  -16.8 °C 0.5 °F /  -17.5 °C 1036.1 in /  35082.3 hPa Calm     92 % 0.0 in /  0 mm 0.0 W/m2 CLR
23:54 1.7 °F /  -16.8 °C 0.3 °F /  -17.6 °C 1036.1 in /  35082.3 hPa Calm     91 % 0.0 in /  0 mm 0.0 W/m2 CLR
23:59 1.7 °F /  -16.8 °C 0.5 °F /  -17.5 °C 1036.1 in /  35082.3 hPa Calm     92 % 0.0 in /  0 mm 0.0 W/m2 CLR
Lo Temps de Massalio
Compliments of Weather Underground - 1.25 mb